Time;durP1;ratioP1;P1;durP2;ratioP2;P2;SDS_P1;SDS_P2;PMS_P1;PMS_P2;Temp;Humidity;BMP_temperature;BMP_pressure;BME280_temperature;BME280_humidity;BME280_pressure;Samples;Min_cycle;Max_cycle;Signal;HPM_P1;HPM_P2
2022/07/27 00:00:57;;;;;;;0.60;0.60;;;;;;;13.89;69.01;101946.16;4976784;28;20047;-91
2022/07/27 00:03:23;;;;;;;1.07;0.70;;;;;;;13.87;69.22;101947.03;4977169;28;20027;-91
2022/07/27 00:05:51;;;;;;;0.57;0.57;;;;;;;13.82;69.25;101943.63;4976909;28;20125;-91
2022/07/27 00:08:19;;;;;;;0.50;0.50;;;;;;;13.76;69.51;101936.75;4976133;28;20019;-89
2022/07/27 00:10:51;;;;;;;0.70;0.70;;;;;;;13.73;69.68;101942.00;4976996;28;20023;-91
2022/07/27 00:13:29;;;;;;;0.60;0.60;;;;;;;13.67;69.51;101945.53;4976891;28;20056;-90
2022/07/27 00:16:07;;;;;;;0.88;0.88;;;;;;;13.59;69.69;101944.75;4976650;28;20431;-90
2022/07/27 00:18:35;;;;;;;0.75;0.60;;;;;;;13.55;69.57;101945.66;4977094;28;20027;-91
2022/07/27 00:21:16;;;;;;;0.60;0.60;;;;;;;13.50;69.92;101953.53;4976691;28;20035;-91
2022/07/27 00:23:44;;;;;;;0.65;0.65;;;;;;;13.43;69.93;101944.03;4976652;28;20089;-90
2022/07/27 00:26:58;;;;;;;0.60;0.60;;;;;;;13.37;69.96;101944.03;4976320;28;20030;-89
2022/07/27 00:29:23;;;;;;;0.65;0.65;;;;;;;13.28;70.30;101945.88;4976428;28;20035;-89
2022/07/27 00:31:51;;;;;;;0.47;0.47;;;;;;;13.26;70.12;101946.78;4976337;28;20027;-90
2022/07/27 00:34:23;;;;;;;0.55;0.55;;;;;;;13.19;70.23;101938.13;4976296;28;20038;-89
2022/07/27 00:36:54;;;;;;;0.65;0.65;;;;;;;13.16;70.23;101942.50;4976162;28;20058;-90
2022/07/27 00:39:32;;;;;;;1.05;0.70;;;;;;;13.09;70.28;101942.56;4975832;28;20031;-89
2022/07/27 00:41:57;;;;;;;1.00;0.50;;;;;;;13.07;70.35;101936.47;4976018;28;20035;-89
2022/07/27 00:44:33;;;;;;;0.67;0.60;;;;;;;13.00;70.44;101937.41;4975810;28;20018;-89
2022/07/27 00:47:17;;;;;;;0.82;0.50;;;;;;;12.96;70.54;101940.91;4975924;28;20026;-89
2022/07/27 00:53:15;;;;;;;0.47;0.47;;;;;;;12.84;70.99;101936.66;4975386;28;20101;-89
2022/07/27 01:06:01;;;;;;;0.65;0.55;;;;;;;12.67;71.18;101944.59;4897416;29;20047;-89
2022/07/27 01:08:33;;;;;;;0.50;0.50;;;;;;;12.61;71.41;101936.84;4897383;29;20417;-90
2022/07/27 01:11:35;;;;;;;0.65;0.65;;;;;;;12.57;71.59;101949.00;4896956;29;20104;-90
2022/07/27 01:17:32;;;;;;;0.63;0.63;;;;;;;12.41;71.62;101939.56;4897118;29;20055;-90
2022/07/27 01:20:13;;;;;;;0.52;0.52;;;;;;;12.40;71.88;101937.81;4896849;29;20044;-89
2022/07/27 01:22:50;;;;;;;0.40;0.40;;;;;;;12.35;71.95;101935.25;4897264;29;20115;-90
2022/07/27 01:25:25;;;;;;;0.50;0.50;;;;;;;12.30;72.01;101937.00;4897226;29;20025;-90
2022/07/27 01:28:05;;;;;;;0.60;0.60;;;;;;;12.25;71.98;101941.38;4897070;29;20101;-89
2022/07/27 01:30:36;;;;;;;0.40;0.40;;;;;;;12.24;71.88;101940.47;4897106;29;20180;-90
2022/07/27 01:33:03;;;;;;;0.63;0.63;;;;;;;12.24;72.07;101944.84;4929417;29;20041;-90
2022/07/27 01:35:29;;;;;;;0.60;0.60;;;;;;;12.16;72.13;101947.47;4956394;29;20023;-90
2022/07/27 01:38:00;;;;;;;0.87;0.87;;;;;;;12.12;72.15;101949.22;4955871;29;20030;-90
2022/07/27 01:44:03;;;;;;;;;;;;;;;;;;;;;
2022/07/27 01:50:19;;;;;;;0.80;0.80;;;;;;;11.95;72.60;101933.66;4896546;29;20553;-89
2022/07/27 01:56:50;;;;;;;0.85;0.85;;;;;;;11.90;72.75;101931.06;4896756;29;20529;-89
2022/07/27 01:59:32;;;;;;;0.57;0.57;;;;;;;11.84;72.90;101936.25;4897642;29;20056;-89
2022/07/27 02:02:00;;;;;;;0.82;0.82;;;;;;;11.81;73.02;101932.81;4947223;29;20039;-89
2022/07/27 02:04:29;;;;;;;0.80;0.80;;;;;;;11.74;72.93;101932.84;4965389;28;20504;-89
2022/07/27 02:06:55;;;;;;;0.98;0.63;;;;;;;11.70;73.26;101933.72;4974371;28;20031;-89
2022/07/27 02:09:32;;;;;;;1.93;0.80;;;;;;;11.66;73.38;101925.94;4974908;28;20031;-88
2022/07/27 02:14:41;;;;;;;0.68;0.68;;;;;;;11.63;73.32;101931.13;4975885;28;20499;-89
2022/07/27 02:17:06;;;;;;;0.70;0.70;;;;;;;11.60;73.51;101926.81;4975147;28;20023;-91
2022/07/27 02:19:32;;;;;;;0.67;0.67;;;;;;;11.58;73.33;101925.94;4975245;28;20022;-88
2022/07/27 02:22:09;;;;;;;0.97;0.97;;;;;;;11.54;73.67;101924.22;4972520;28;20500;-89
2022/07/27 02:24:38;;;;;;;0.95;0.80;;;;;;;11.55;73.70;101929.41;4974282;28;20047;-89
2022/07/27 02:27:28;;;;;;;0.80;0.80;;;;;;;11.53;73.67;101931.16;4974006;28;20023;-88
2022/07/27 02:29:53;;;;;;;2.38;0.90;;;;;;;11.47;73.93;101915.56;4976703;28;20125;-89
2022/07/27 02:32:32;;;;;;;0.80;0.80;;;;;;;11.49;73.80;101921.63;4978313;28;20022;-89
2022/07/27 02:34:57;;;;;;;0.80;0.80;;;;;;;11.46;73.77;101920.75;4977399;28;20026;-89
2022/07/27 02:37:23;;;;;;;0.90;0.90;;;;;;;11.46;74.01;101920.75;4978293;28;20042;-89
2022/07/27 02:39:57;;;;;;;0.70;0.70;;;;;;;11.40;73.95;101913.84;4978294;28;20058;-88
2022/07/27 02:42:42;;;;;;;1.00;1.00;;;;;;;11.39;74.04;101914.69;4978312;28;20114;-89
2022/07/27 02:45:19;;;;;;;0.77;0.77;;;;;;;11.39;74.06;101912.97;4977682;28;20030;-89
2022/07/27 02:47:53;;;;;;;1.42;1.10;;;;;;;11.38;73.91;101920.75;4978100;28;20023;-87
2022/07/27 02:50:45;;;;;;;0.85;0.85;;;;;;;11.35;74.25;101916.44;4977650;28;20031;-89
2022/07/27 02:53:10;;;;;;;1.05;0.98;;;;;;;11.31;73.95;101919.06;4974559;28;20046;-89
2022/07/27 02:55:44;;;;;;;0.90;0.90;;;;;;;11.26;74.15;101914.72;4977947;28;20027;-89
2022/07/27 02:58:18;;;;;;;0.85;0.85;;;;;;;11.24;74.18;101906.06;4977802;28;20335;-89
2022/07/27 03:00:56;;;;;;;0.82;0.82;;;;;;;11.23;74.34;101914.75;4977874;28;20031;-90
2022/07/27 03:07:37;;;;;;;0.80;0.80;;;;;;;11.15;74.30;101913.00;4977553;28;20452;-89
2022/07/27 03:10:03;;;;;;;1.05;1.02;;;;;;;11.10;74.41;101920.81;4977378;28;20068;-89
2022/07/27 03:16:22;;;;;;;1.05;1.05;;;;;;;11.01;74.12;101921.66;4937428;29;20123;-89
2022/07/27 03:22:41;;;;;;;0.90;0.90;;;;;;;10.94;74.43;101925.97;4897429;29;20039;-90
2022/07/27 03:25:06;;;;;;;;;;;;;;;10.92;74.51;101925.09;4937088;29;20051;-90
2022/07/27 03:27:41;;;;;;;1.87;1.10;;;;;;;10.89;74.52;101922.53;4937515;29;19915;-89
2022/07/27 03:30:07;;;;;;;1.00;1.00;;;;;;;10.85;74.58;101920.78;4956153;28;20313;-90
2022/07/27 03:32:32;;;;;;;1.20;1.10;;;;;;;10.84;74.80;101926.00;4977406;28;20045;-89
2022/07/27 03:35:07;;;;;;;1.43;1.20;;;;;;;10.80;74.65;101917.34;4976998;28;20282;-90
2022/07/27 03:37:42;;;;;;;1.13;1.02;;;;;;;10.79;74.96;101921.66;4977238;28;20529;-89
2022/07/27 03:40:09;;;;;;;1.10;1.00;;;;;;;10.76;74.80;101916.44;4976353;28;20383;-89
2022/07/27 03:42:35;;;;;;;0.95;0.75;;;;;;;10.79;74.87;101918.19;4977466;28;20477;-90
2022/07/27 03:45:00;;;;;;;1.00;0.90;;;;;;;10.76;75.01;101923.38;4977062;28;20109;-90
2022/07/27 03:47:28;;;;;;;1.00;0.87;;;;;;;10.72;74.87;101924.22;4977061;28;20045;-90
2022/07/27 03:49:53;;;;;;;1.10;1.10;;;;;;;10.70;75.07;101923.34;4976741;28;20031;-89
2022/07/27 03:52:19;;;;;;;1.27;1.07;;;;;;;10.71;75.21;101925.09;4977133;28;20023;-89
2022/07/27 03:54:46;;;;;;;0.93;0.93;;;;;;;10.70;75.03;101928.53;4977330;28;20122;-91
2022/07/27 03:57:12;;;;;;;0.90;0.90;;;;;;;10.71;75.20;101931.16;4976943;28;20030;-90
2022/07/27 03:59:55;;;;;;;1.17;1.07;;;;;;;10.66;75.20;101923.38;4976435;28;20038;-90
2022/07/27 04:02:20;;;;;;;0.85;0.85;;;;;;;10.70;75.16;101928.53;4977097;28;20031;-90
2022/07/27 04:04:46;;;;;;;1.23;1.13;;;;;;;10.73;75.36;101928.56;4976755;28;20153;-89
2022/07/27 04:07:20;;;;;;;0.90;0.90;;;;;;;10.76;75.48;101925.97;4976643;28;20031;-90
2022/07/27 04:09:45;;;;;;;1.45;1.33;;;;;;;10.81;75.23;101927.72;4976861;28;20022;-90
2022/07/27 04:14:42;;;;;;;1.20;1.20;;;;;;;10.87;75.28;101938.97;4983460;23;20392;-90
2022/07/27 04:17:10;;;;;;;1.20;1.10;;;;;;;10.89;75.39;101924.25;4976731;28;20089;-91
2022/07/27 04:19:35;;;;;;;1.27;1.17;;;;;;;10.92;75.45;101929.44;4976923;28;20058;-91
2022/07/27 04:22:00;;;;;;;2.27;1.10;;;;;;;10.96;75.67;101923.41;4976143;28;20066;-91
2022/07/27 04:24:26;;;;;;;1.00;1.00;;;;;;;11.01;75.51;101926.84;4976941;28;20026;-92
2022/07/27 04:26:51;;;;;;;1.20;1.20;;;;;;;11.07;75.90;101931.19;4976642;28;20027;-89
2022/07/27 04:29:17;;;;;;;1.30;1.20;;;;;;;11.08;75.92;101925.13;4976262;28;20093;-89
2022/07/27 04:31:43;;;;;;;1.43;1.20;;;;;;;11.15;76.04;101929.44;4976779;28;20030;-90
2022/07/27 04:34:27;;;;;;;1.27;1.17;;;;;;;11.19;75.74;101931.19;4976412;28;20023;-90
2022/07/27 04:36:52;;;;;;;2.35;1.20;;;;;;;11.29;75.74;101934.66;4975789;28;20137;-91
2022/07/27 04:39:17;;;;;;;1.07;1.07;;;;;;;11.35;75.77;101937.25;4976914;28;20491;-89
2022/07/27 04:41:43;;;;;;;1.30;1.20;;;;;;;11.42;75.93;101938.97;4975996;28;20388;-90
2022/07/27 04:44:08;;;;;;;1.50;1.40;;;;;;;11.48;76.05;101948.50;4976007;28;20046;-91
2022/07/27 04:46:33;;;;;;;1.27;1.17;;;;;;;11.53;75.90;101941.53;4976240;28;20031;-91
2022/07/27 04:48:59;;;;;;;1.00;1.00;;;;;;;11.59;76.09;101941.56;4976019;28;20019;-91
2022/07/27 04:51:25;;;;;;;1.00;1.00;;;;;;;11.65;75.75;101937.19;4976340;28;20093;-91
2022/07/27 04:53:55;;;;;;;1.23;0.93;;;;;;;11.70;75.80;101938.91;4976159;28;20030;-91
2022/07/27 04:56:30;;;;;;;1.33;1.20;;;;;;;11.73;75.47;101938.91;4978735;28;20026;-91
2022/07/27 04:58:55;;;;;;;1.30;1.20;;;;;;;11.78;75.92;101951.03;4977029;28;20066;-91
2022/07/27 05:01:24;;;;;;;2.20;1.40;;;;;;;11.80;76.04;101954.50;4976118;28;20027;-90
2022/07/27 05:03:50;;;;;;;1.27;1.17;;;;;;;11.81;75.94;101956.22;4975547;28;20027;-91
2022/07/27 05:06:16;;;;;;;1.80;1.43;;;;;;;11.79;76.14;101953.63;4976318;28;20030;-91
2022/07/27 05:08:53;;;;;;;1.40;1.30;;;;;;;11.78;76.11;101953.63;4975719;28;20030;-90
2022/07/27 05:11:18;;;;;;;1.30;1.20;;;;;;;11.77;76.34;101950.16;4975255;28;20034;-90
2022/07/27 05:13:44;;;;;;;1.13;1.03;;;;;;;11.83;75.93;101962.28;4975451;28;20516;-91
2022/07/27 05:16:09;;;;;;;1.87;1.13;;;;;;;11.85;76.38;101958.81;4975531;28;20030;-91
2022/07/27 05:18:36;;;;;;;1.57;1.00;;;;;;;11.86;76.50;101960.53;4975806;28;20018;-91
2022/07/27 05:21:02;;;;;;;1.30;1.20;;;;;;;11.89;76.32;101959.66;4975385;28;20073;-91
2022/07/27 05:23:33;;;;;;;1.00;1.00;;;;;;;11.93;76.47;101957.94;4975460;28;20023;-91
2022/07/27 05:25:59;;;;;;;0.93;0.93;;;;;;;11.98;76.47;101969.22;4975629;28;20050;-91
2022/07/27 05:28:27;;;;;;;1.00;1.00;;;;;;;12.04;76.57;101971.81;4975748;28;20117;-91
2022/07/27 05:31:01;;;;;;;0.90;0.90;;;;;;;12.09;77.03;101971.78;4968522;28;20027;-92
2022/07/27 05:33:26;;;;;;;1.10;1.00;;;;;;;12.13;76.72;101973.50;4974370;28;20030;-87
2022/07/27 05:35:58;;;;;;;0.70;0.70;;;;;;;12.16;77.29;101981.31;4974655;28;20022;-94
2022/07/27 05:38:23;;;;;;;0.50;0.50;;;;;;;12.23;78.08;101985.59;4975030;28;20041;-90
2022/07/27 05:41:00;;;;;;;0.90;0.90;;;;;;;12.26;78.07;101974.34;4975508;28;20022;-96
2022/07/27 05:43:37;;;;;;;0.85;0.85;;;;;;;12.33;77.57;101983.84;4968249;28;20037;-83
2022/07/27 05:46:03;;;;;;;0.85;0.85;;;;;;;12.36;77.37;101976.88;4994370;28;20023;-96
2022/07/27 05:48:31;;;;;;;0.63;0.63;;;;;;;12.44;77.67;101978.59;4998265;28;20027;-96
2022/07/27 05:51:17;;;;;;;0.82;0.82;;;;;;;12.48;78.72;101970.75;4998752;28;20059;-96
2022/07/27 05:53:42;;;;;;;0.50;0.50;;;;;;;12.54;78.51;101977.69;5546228;23;21180;-96
2022/07/27 05:56:10;;;;;;;2.30;1.50;;;;;;;12.58;82.30;101981.97;5031748;28;20054;-96
2022/07/27 05:59:26;;;;;;;3.00;1.90;;;;;;;12.68;82.00;101977.59;5035786;28;20060;-96
2022/07/27 06:01:58;;;;;;;2.92;1.90;;;;;;;12.75;80.68;101987.09;4986270;28;20038;-96
2022/07/27 06:04:26;;;;;;;2.40;1.63;;;;;;;12.81;79.13;101989.66;5035144;28;20038;-96
2022/07/27 06:10:12;;;;;;;1.90;1.60;;;;;;;12.95;81.34;101996.50;5024625;28;20066;-96
2022/07/27 06:12:41;;;;;;;2.13;1.55;;;;;;;13.05;79.74;101987.78;5024789;28;20006;-96
2022/07/27 06:16:11;;;;;;;1.67;1.58;;;;;;;13.13;80.51;101978.16;5024532;28;20011;-96
2022/07/27 06:18:37;;;;;;;2.80;1.80;;;;;;;13.24;80.29;101983.25;4941942;29;20076;-96
2022/07/27 06:21:03;;;;;;;4.57;2.20;;;;;;;13.36;78.78;101987.53;4939943;28;20032;-96
2022/07/27 06:23:44;;;;;;;3.90;2.30;;;;;;;13.49;78.27;101993.50;5019007;28;20033;-96
2022/07/27 06:26:31;;;;;;;4.32;2.40;;;;;;;13.66;78.46;101990.75;5018025;28;20034;-96
2022/07/27 06:31:36;;;;;;;3.85;2.17;;;;;;;13.90;77.01;101991.38;5197739;23;20058;-95
2022/07/27 06:34:01;;;;;;;3.05;1.73;;;;;;;14.26;76.53;101994.44;5001163;28;20033;-88
2022/07/27 06:36:27;;;;;;;1.80;1.70;;;;;;;14.98;73.80;101989.13;4999560;28;20030;-87
2022/07/27 06:39:04;;;;;;;2.33;1.60;;;;;;;16.26;74.26;101993.88;4998505;28;20042;-91
2022/07/27 06:41:30;;;;;;;1.10;1.00;;;;;;;17.72;74.01;101993.06;4998932;28;20027;-91
2022/07/27 06:43:55;;;;;;;1.87;1.10;;;;;;;19.32;68.86;101988.31;5000307;28;20029;-87
2022/07/27 06:46:32;;;;;;;1.17;0.67;;;;;;;20.88;61.42;101990.53;4999273;28;20444;-85
2022/07/27 06:48:58;;;;;;;0.70;0.70;;;;;;;21.91;61.38;101992.34;4998522;28;20068;-86
2022/07/27 06:51:32;;;;;;;2.83;1.40;;;;;;;22.62;54.00;101994.38;4999522;28;20030;-87
2022/07/27 06:54:10;;;;;;;1.67;1.00;;;;;;;22.87;50.55;102000.25;4998719;28;20486;-87
2022/07/27 06:56:36;;;;;;;1.58;0.90;;;;;;;22.84;48.84;101995.97;4998334;28;20415;-86
2022/07/27 06:59:01;;;;;;;1.25;1.05;;;;;;;22.83;49.93;101996.91;4998922;28;20041;-86
2022/07/27 07:01:26;;;;;;;1.10;0.73;;;;;;;22.59;54.28;102004.22;4998676;28;20037;-86
2022/07/27 07:03:54;;;;;;;1.17;1.07;;;;;;;22.60;48.97;101993.59;4997608;28;20034;-86
2022/07/27 07:06:20;;;;;;;1.30;0.88;;;;;;;22.25;52.53;101993.44;4999092;28;20031;-86
2022/07/27 07:08:45;;;;;;;0.60;0.60;;;;;;;22.11;52.95;102009.94;4999938;28;20022;-87
2022/07/27 07:11:25;;;;;;;1.77;0.87;;;;;;;21.78;50.52;102014.94;4998416;28;20030;-85
2022/07/27 07:13:50;;;;;;;2.13;1.20;;;;;;;21.18;50.83;102010.41;4992919;28;20026;-86
2022/07/27 07:16:16;;;;;;;0.87;0.87;;;;;;;20.74;54.15;102020.06;4995615;28;20356;-86
2022/07/27 07:18:53;;;;;;;0.93;0.83;;;;;;;20.50;53.73;102017.44;4995789;28;20025;-86
2022/07/27 07:21:30;;;;;;;2.85;1.20;;;;;;;20.25;57.05;102012.25;4996253;28;20030;-85
2022/07/27 07:23:58;;;;;;;2.70;1.38;;;;;;;20.06;53.01;102009.44;4994816;28;20025;-85
2022/07/27 07:26:31;;;;;;;2.05;1.02;;;;;;;19.69;54.46;102001.06;4996174;28;20399;-85
2022/07/27 07:28:57;;;;;;;2.35;1.30;;;;;;;19.30;55.01;102006.78;4995769;28;20151;-86
2022/07/27 07:31:22;;;;;;;1.43;1.20;;;;;;;19.19;58.35;102007.13;4994836;28;20406;-85
2022/07/27 07:34:00;;;;;;;1.07;1.00;;;;;;;19.22;58.04;102016.69;4996025;28;20034;-85
2022/07/27 07:36:47;;;;;;;;;;;;;;;;;;;;;
2022/07/27 07:39:18;;;;;;;2.40;1.45;;;;;;;19.02;59.50;102009.47;4988398;28;20034;-87
2022/07/27 07:41:44;;;;;;;0.75;0.75;;;;;;;19.12;59.01;102014.38;4995602;28;20042;-87
2022/07/27 07:44:09;;;;;;;2.03;0.90;;;;;;;19.20;57.27;102021.16;4996003;28;20034;-89
2022/07/27 07:46:45;;;;;;;2.10;1.30;;;;;;;19.07;57.50;102018.94;4995991;28;20026;-92
2022/07/27 07:49:11;;;;;;;2.15;1.40;;;;;;;19.07;57.56;102016.31;4992630;28;20073;-89
2022/07/27 07:51:36;;;;;;;2.80;1.57;;;;;;;19.00;54.56;102025.28;4996346;28;20042;-91
2022/07/27 07:54:02;;;;;;;3.33;1.50;;;;;;;18.98;55.33;102016.59;4996583;28;20093;-90
2022/07/27 07:56:30;;;;;;;3.80;1.50;;;;;;;18.87;56.12;102016.91;4996899;28;20026;-90
2022/07/27 07:58:55;;;;;;;1.75;1.35;;;;;;;18.88;56.74;102018.63;4992333;28;20023;-91
2022/07/27 08:01:36;;;;;;;1.33;1.23;;;;;;;19.05;55.58;102020.75;4996245;28;20041;-87
2022/07/27 08:04:02;;;;;;;1.60;1.00;;;;;;;19.14;56.11;102025.72;5007176;28;20084;-91
2022/07/27 08:06:28;;;;;;;1.75;1.20;;;;;;;19.04;53.02;102026.03;5010120;28;20026;-87
2022/07/27 08:08:53;;;;;;;1.47;0.90;;;;;;;18.86;56.46;102028.34;4994441;28;20018;-87
2022/07/27 08:11:24;;;;;;;1.70;0.80;;;;;;;18.81;57.25;102025.84;4994736;28;20044;-86
2022/07/27 08:13:50;;;;;;;0.90;0.70;;;;;;;19.02;57.09;102030.53;4992878;28;20723;-86
2022/07/27 08:16:17;;;;;;;0.77;0.77;;;;;;;19.35;57.36;102032.97;4995186;28;20101;-89
2022/07/27 08:18:42;;;;;;;3.85;1.50;;;;;;;19.49;52.84;102037.75;4995498;28;20463;-90
2022/07/27 08:21:08;;;;;;;1.40;1.17;;;;;;;19.31;55.83;102049.75;4995227;28;20096;-89
2022/07/27 08:23:33;;;;;;;3.60;1.58;;;;;;;18.98;54.84;102035.00;4995219;28;20467;-88
2022/07/27 08:25:59;;;;;;;2.90;1.27;;;;;;;18.77;54.97;102033.88;4994146;28;20089;-87
2022/07/27 08:28:25;;;;;;;1.43;1.27;;;;;;;18.45;56.72;102033.09;4994997;28;20034;-88
2022/07/27 08:30:59;;;;;;;1.77;1.27;;;;;;;18.33;56.29;102023.78;4994293;28;20084;-87
2022/07/27 08:33:33;;;;;;;1.98;1.30;;;;;;;18.49;55.57;102026.81;4995043;28;20041;-88
2022/07/27 08:35:59;;;;;;;1.15;0.93;;;;;;;18.62;57.25;102028.19;4994625;28;20033;-89
2022/07/27 08:38:30;;;;;;;2.30;1.10;;;;;;;18.71;54.03;102021.78;4994179;28;20030;-87
2022/07/27 08:41:05;;;;;;;1.92;1.10;;;;;;;18.58;55.75;102023.91;4994328;28;20058;-88
2022/07/27 08:43:42;;;;;;;1.30;1.08;;;;;;;18.37;54.42;102026.28;4994144;28;20026;-87
2022/07/27 08:46:34;;;;;;;2.67;1.30;;;;;;;18.14;54.14;102021.69;4994005;28;20049;-88
2022/07/27 08:49:03;;;;;;;1.42;1.05;;;;;;;18.04;56.48;102026.34;4994142;28;20035;-88
2022/07/27 08:51:28;;;;;;;0.75;0.75;;;;;;;18.14;57.07;102021.69;4994618;28;20041;-89
2022/07/27 08:53:55;;;;;;;1.07;0.90;;;;;;;18.42;55.96;102022.66;4994690;28;20027;-89
2022/07/27 08:56:26;;;;;;;1.15;0.70;;;;;;;18.74;52.41;102023.47;4994955;28;20027;-85
2022/07/27 08:59:06;;;;;;;2.92;1.30;;;;;;;18.80;54.54;102016.25;4994601;28;20033;-87
2022/07/27 09:01:41;;;;;;;1.05;0.90;;;;;;;19.13;55.78;102023.16;4994277;28;20023;-86
2022/07/27 09:04:07;;;;;;;2.53;1.10;;;;;;;19.38;53.35;102017.03;4993806;28;20465;-87
2022/07/27 09:06:59;;;;;;;1.53;1.00;;;;;;;19.52;52.48;102029.75;4994384;28;20084;-87
2022/07/27 09:09:25;;;;;;;1.70;0.90;;;;;;;19.49;53.88;102032.50;4990083;28;20379;-86
2022/07/27 09:12:07;;;;;;;0.60;0.60;;;;;;;19.35;51.75;102032.97;4993933;28;20022;-86
2022/07/27 09:14:34;;;;;;;1.13;0.80;;;;;;;19.13;50.52;102028.41;4994022;28;20110;-87
2022/07/27 09:17:23;;;;;;;2.10;0.80;;;;;;;18.86;52.72;102040.63;4993979;28;20034;-87
2022/07/27 09:19:55;;;;;;;2.05;0.75;;;;;;;18.63;51.21;102029.06;4993761;28;20360;-87
2022/07/27 09:22:38;;;;;;;1.08;0.93;;;;;;;18.50;52.77;102036.44;4993993;28;20030;-85
2022/07/27 09:25:04;;;;;;;1.60;1.00;;;;;;;18.77;52.09;102037.38;4993111;28;20022;-88
2022/07/27 09:27:29;;;;;;;0.98;0.90;;;;;;;19.14;52.10;102032.72;4992803;28;20442;-86
2022/07/27 09:30:08;;;;;;;1.60;0.90;;;;;;;19.50;52.35;102036.84;4992458;28;20026;-87
2022/07/27 09:35:13;;;;;;;0.52;0.52;;;;;;;20.28;49.73;102038.50;4988725;23;20066;-87
2022/07/27 09:37:39;;;;;;;0.70;0.60;;;;;;;20.46;47.36;102039.59;4973180;28;20136;-88
2022/07/27 09:40:16;;;;;;;0.87;0.60;;;;;;;20.58;44.36;102029.50;4973305;28;20483;-87
2022/07/27 09:42:42;;;;;;;1.23;0.90;;;;;;;20.74;48.85;102025.34;4974848;28;20034;-88
2022/07/27 09:45:37;;;;;;;0.90;0.80;;;;;;;21.11;46.69;102031.78;4973997;28;20044;-89
2022/07/27 09:48:10;;;;;;;1.13;0.80;;;;;;;21.36;47.54;102025.50;4958451;28;20449;-93
2022/07/27 09:50:57;;;;;;;2.40;0.95;;;;;;;21.60;46.69;102025.41;4992893;23;20055;-89
2022/07/27 09:53:25;;;;;;;1.42;0.95;;;;;;;21.77;44.98;102026.44;4979894;28;20031;-95
2022/07/27 09:56:14;;;;;;;0.50;0.50;;;;;;;21.74;47.45;102025.63;5216354;23;20101;-96
2022/07/27 09:58:50;;;;;;;3.58;0.88;;;;;;;21.63;44.53;102025.25;4996881;28;20023;-96
2022/07/27 10:01:20;;;;;;;1.05;0.80;;;;;;;21.32;46.04;102026.53;4992031;28;20023;-96
2022/07/27 10:03:47;;;;;;;0.55;0.55;;;;;;;21.02;46.99;102032.16;4988131;28;20095;-94
2022/07/27 10:06:13;;;;;;;1.77;1.13;;;;;;;20.78;43.99;102031.34;4976414;28;20023;-92
2022/07/27 10:08:41;;;;;;;2.17;0.90;;;;;;;20.43;45.14;102029.16;4976330;28;20468;-92
2022/07/27 10:11:06;;;;;;;0.70;0.70;;;;;;;20.24;47.69;102034.25;4975936;28;20041;-91
2022/07/27 10:13:32;;;;;;;0.90;0.90;;;;;;;20.18;46.88;102039.75;4973710;28;20027;-86
2022/07/27 10:16:00;;;;;;;1.20;0.68;;;;;;;20.19;46.12;102034.41;4974097;28;20026;-86
2022/07/27 10:18:40;;;;;;;1.50;0.80;;;;;;;20.46;47.76;102031.69;4975206;28;20030;-88
2022/07/27 10:21:08;;;;;;;0.70;0.70;;;;;;;20.89;48.66;102023.88;4975287;28;20030;-87
2022/07/27 10:23:36;;;;;;;0.40;0.40;;;;;;;21.25;48.90;102015.38;4975340;28;20031;-90
2022/07/27 10:26:23;;;;;;;1.10;0.70;;;;;;;21.56;47.58;102010.56;4974310;28;20065;-90
2022/07/27 10:29:19;;;;;;;1.17;0.80;;;;;;;21.77;45.43;102019.38;4974078;28;20034;-90
2022/07/27 10:31:53;;;;;;;1.10;0.90;;;;;;;21.90;46.17;102017.06;4980630;23;20113;-89
2022/07/27 10:34:42;;;;;;;1.00;0.90;;;;;;;22.08;41.83;102002.16;4973842;28;20035;-90
2022/07/27 10:37:11;;;;;;;1.25;0.70;;;;;;;22.31;44.87;102003.72;4974292;28;20434;-89
2022/07/27 10:39:41;;;;;;;2.05;1.10;;;;;;;22.43;42.40;102012.91;4974120;28;20054;-87
2022/07/27 10:42:24;;;;;;;1.17;1.08;;;;;;;22.22;45.79;102009.44;4973794;28;20030;-88
2022/07/27 10:45:05;;;;;;;1.02;0.80;;;;;;;22.07;46.97;102005.72;4974348;28;20026;-89
2022/07/27 10:47:37;;;;;;;0.60;0.60;;;;;;;21.85;46.21;102011.09;4968246;28;20026;-89
2022/07/27 10:50:14;;;;;;;2.15;1.30;;;;;;;21.35;46.43;102010.56;4974432;28;20035;-89
2022/07/27 10:52:52;;;;;;;0.77;0.77;;;;;;;21.10;48.14;102008.09;4978056;28;20042;-88
2022/07/27 10:55:35;;;;;;;0.63;0.55;;;;;;;20.96;48.92;102006.00;4977877;28;20110;-89
2022/07/27 10:58:03;;;;;;;0.50;0.50;;;;;;;20.86;49.32;102008.19;4977564;28;20365;-88
2022/07/27 11:00:50;;;;;;;1.73;0.80;;;;;;;20.66;48.58;102008.94;4976474;28;20053;-85
2022/07/27 11:03:31;;;;;;;2.45;1.15;;;;;;;20.39;47.97;102010.88;4976652;28;20499;-87
2022/07/27 11:06:01;;;;;;;2.28;1.38;;;;;;;20.02;48.66;102002.56;4977058;28;20391;-87
2022/07/27 11:08:32;;;;;;;1.77;1.10;;;;;;;19.86;49.60;101997.84;4976415;28;20391;-86
2022/07/27 11:10:58;;;;;;;1.17;0.95;;;;;;;19.86;50.80;101997.00;4976748;28;20058;-86
2022/07/27 11:13:25;;;;;;;0.82;0.82;;;;;;;19.90;49.14;101995.97;4976989;28;20031;-87
2022/07/27 11:16:02;;;;;;;2.15;0.88;;;;;;;20.04;50.59;101995.47;4975596;28;20058;-87
2022/07/27 11:18:29;;;;;;;1.02;0.70;;;;;;;20.60;50.63;102002.13;4977339;28;20019;-88
2022/07/27 11:21:27;;;;;;;1.02;0.88;;;;;;;21.13;49.90;102000.03;4976716;28;20018;-86
2022/07/27 11:24:04;;;;;;;0.57;0.57;;;;;;;21.78;46.20;101999.97;4975862;28;20019;-87
2022/07/27 11:26:38;;;;;;;0.73;0.73;;;;;;;21.96;43.79;101998.25;4977171;28;20029;-88
2022/07/27 11:29:09;;;;;;;2.42;1.05;;;;;;;21.81;46.51;102006.91;4976261;28;20027;-89
2022/07/27 11:31:36;;;;;;;2.35;1.13;;;;;;;21.76;42.58;102001.81;4976349;28;20057;-90
2022/07/27 11:34:02;;;;;;;1.30;1.08;;;;;;;21.81;44.68;101993.69;4976616;28;20027;-87
2022/07/27 11:36:42;;;;;;;2.25;1.05;;;;;;;21.90;45.01;101998.56;4976602;28;20081;-89
2022/07/27 11:39:11;;;;;;;0.90;0.90;;;;;;;21.98;45.65;101998.22;4976843;28;20026;-88
2022/07/27 11:41:37;;;;;;;3.13;1.38;;;;;;;21.84;41.78;101997.03;4976846;28;20030;-88
2022/07/27 11:44:08;;;;;;;2.78;1.27;;;;;;;21.44;43.19;101994.34;4974969;28;20081;-88
2022/07/27 11:46:41;;;;;;;1.70;1.20;;;;;;;21.24;44.58;101992.53;4976840;28;20085;-90
2022/07/27 11:49:10;;;;;;;1.00;0.90;;;;;;;21.34;46.28;101986.84;4976597;28;20035;-88
2022/07/27 11:51:38;;;;;;;0.60;0.60;;;;;;;21.48;46.89;101988.94;4983595;23;20062;-88
2022/07/27 11:54:06;;;;;;;0.60;0.60;;;;;;;21.58;46.40;101987.59;4995782;28;20030;-88
2022/07/27 11:56:34;;;;;;;1.92;1.02;;;;;;;21.56;41.27;101989.44;4995769;28;20387;-87
2022/07/27 11:59:07;;;;;;;1.45;0.80;;;;;;;21.35;44.56;101989.44;4994361;28;20026;-90
2022/07/27 12:01:39;;;;;;;1.95;0.90;;;;;;;21.28;43.18;101987.97;4994523;28;20049;-87
2022/07/27 12:04:20;;;;;;;1.15;0.85;;;;;;;21.13;42.77;101987.72;4995195;28;20033;-86
2022/07/27 12:07:05;;;;;;;3.13;1.00;;;;;;;21.23;44.66;101982.88;4994802;28;20026;-86
2022/07/27 12:09:35;;;;;;;0.68;0.68;;;;;;;21.49;43.47;101980.94;4994337;28;20070;-87
2022/07/27 12:12:12;;;;;;;0.60;0.60;;;;;;;21.75;45.40;101982.44;4994133;28;20732;-84
2022/07/27 12:14:41;;;;;;;0.95;0.63;;;;;;;21.93;43.69;101976.41;4995617;28;20035;-87
2022/07/27 12:17:17;;;;;;;0.70;0.50;;;;;;;22.14;44.91;101967.47;4994675;28;20018;-85
2022/07/27 12:19:49;;;;;;;0.60;0.60;;;;;;;22.36;44.77;101970.00;4994521;28;20032;-86
2022/07/27 12:22:22;;;;;;;0.52;0.50;;;;;;;22.66;44.41;101966.81;4994814;28;20031;-86
2022/07/27 12:24:47;;;;;;;0.90;0.70;;;;;;;22.97;41.24;101970.59;4995037;28;20029;-84
2022/07/27 12:27:15;;;;;;;0.40;0.40;;;;;;;23.21;41.49;101972.97;4993532;28;20382;-84
2022/07/27 12:30:01;;;;;;;1.13;0.65;;;;;;;23.44;39.57;101977.09;4994186;28;20029;-86
2022/07/27 12:32:30;;;;;;;0.68;0.68;;;;;;;23.66;39.68;101978.63;4994868;28;20600;-86
2022/07/27 12:35:47;;;;;;;0.60;0.60;;;;;;;23.89;39.02;101980.03;4993729;28;20088;-86
2022/07/27 12:38:12;;;;;;;0.82;0.50;;;;;;;24.14;39.17;101980.56;4915285;29;20040;-86
2022/07/27 12:41:10;;;;;;;0.60;0.60;;;;;;;24.44;37.39;101980.63;4915657;29;20381;-87
2022/07/27 12:43:36;;;;;;;0.43;0.43;;;;;;;24.71;36.32;101972.06;4976656;28;20054;-87
2022/07/27 12:46:12;;;;;;;1.50;0.85;;;;;;;24.59;30.46;101980.69;4994359;28;20027;-86